createdAt,value
2022-11-14T00:02:53.420Z,8.50
2022-11-14T00:08:04.729Z,8.50
2022-11-14T00:13:16.787Z,8.40
2022-11-14T00:18:28.193Z,8.30
2022-11-14T00:23:39.001Z,8.30
2022-11-14T00:28:50.124Z,8.10
2022-11-14T00:34:00.938Z,8.30
2022-11-14T00:39:15.626Z,8.20
2022-11-14T00:44:26.417Z,8.20
2022-11-14T00:49:37.433Z,8.20
2022-11-14T00:54:48.509Z,8.30
2022-11-14T00:59:59.607Z,8.30
2022-11-14T01:05:10.665Z,8.20
2022-11-14T01:10:22.124Z,8.20
2022-11-14T01:15:40.957Z,8.30
2022-11-14T01:20:52.101Z,8.50
2022-11-14T01:26:05.738Z,8.50
2022-11-14T01:31:17.698Z,8.50
2022-11-14T01:36:28.406Z,8.50
2022-11-14T01:41:39.300Z,8.50
2022-11-14T01:46:56.682Z,8.40
2022-11-14T01:52:41.059Z,8.40
2022-11-14T01:57:51.764Z,8.50
2022-11-14T02:08:55.598Z,8.50
2022-11-14T02:14:07.639Z,8.50
2022-11-14T02:19:18.412Z,8.50
2022-11-14T02:24:29.384Z,8.40
2022-11-14T02:29:40.435Z,8.40
2022-11-14T02:34:51.288Z,8.50
2022-11-14T02:40:02.615Z,8.50
2022-11-14T02:45:14.223Z,8.50
2022-11-14T02:50:25.006Z,8.40
2022-11-14T02:55:36.042Z,8.40
2022-11-14T03:01:13.582Z,8.40
2022-11-14T03:06:17.291Z,8.60
2022-11-14T03:11:28.075Z,8.70
2022-11-14T03:16:39.116Z,8.60
2022-11-14T03:21:49.744Z,8.60
2022-11-14T03:27:00.806Z,8.60
2022-11-14T03:32:11.700Z,8.50
2022-11-14T03:37:22.801Z,8.50
2022-11-14T03:42:35.262Z,8.50
2022-11-14T03:47:46.042Z,8.50
2022-11-14T03:52:57.127Z,8.60
2022-11-14T03:58:09.381Z,8.50
2022-11-14T04:03:20.334Z,8.60
2022-11-14T04:08:31.954Z,8.70
2022-11-14T04:13:42.777Z,8.70
2022-11-14T04:18:53.695Z,8.70
2022-11-14T04:24:09.921Z,8.80
2022-11-14T04:29:21.532Z,8.80
2022-11-14T04:34:32.223Z,8.80
2022-11-14T04:39:43.462Z,8.80
2022-11-14T04:44:54.169Z,8.80
2022-11-14T04:50:05.640Z,8.80
2022-11-14T04:55:16.708Z,8.90
2022-11-14T05:00:28.250Z,8.80
2022-11-14T05:05:41.992Z,8.80
2022-11-14T05:10:53.319Z,8.70
2022-11-14T05:16:04.619Z,8.70
2022-11-14T05:21:16.815Z,8.70
2022-11-14T05:26:29.206Z,8.70
2022-11-14T05:31:40.334Z,8.70
2022-11-14T05:36:50.853Z,8.70
2022-11-14T05:42:01.755Z,8.70
2022-11-14T05:47:12.672Z,8.70
2022-11-14T05:52:23.576Z,8.70
2022-11-14T05:57:35.964Z,8.70
2022-11-14T06:02:47.291Z,8.60
2022-11-14T06:07:59.387Z,8.60
2022-11-14T06:13:10.415Z,8.60
2022-11-14T06:24:50.525Z,8.60
2022-11-14T06:30:01.559Z,8.70
2022-11-14T06:35:12.694Z,8.70
2022-11-14T06:40:23.727Z,8.90
2022-11-14T06:45:34.742Z,8.90
2022-11-14T06:50:55.081Z,8.90
2022-11-14T06:56:11.241Z,9.00
2022-11-14T07:01:26.075Z,9.00
2022-11-14T07:06:36.900Z,9.10
2022-11-14T07:11:47.976Z,9.10
2022-11-14T07:16:58.962Z,9.20
2022-11-14T07:22:09.819Z,9.30
2022-11-14T07:27:20.866Z,9.40
2022-11-14T07:32:31.922Z,10.40
2022-11-14T07:37:42.461Z,11.90
2022-11-14T07:43:00.637Z,12.70
2022-11-14T07:48:11.671Z,11.90
2022-11-14T07:53:22.333Z,10.80
2022-11-14T07:58:31.244Z,10.70
2022-11-14T08:03:45.925Z,10.60
2022-11-14T08:08:57.312Z,10.40
2022-11-14T08:14:08.356Z,10.50
2022-11-14T08:19:19.295Z,10.60
2022-11-14T08:24:33.399Z,10.70
2022-11-14T08:29:44.864Z,10.80
2022-11-14T08:40:27.463Z,11.80
2022-11-14T08:45:41.151Z,12.50
2022-11-14T08:50:57.370Z,13.00
2022-11-14T08:56:12.382Z,14.50
2022-11-14T09:08:51.598Z,16.10
2022-11-14T09:14:03.758Z,17.10
2022-11-14T09:19:14.523Z,17.10
2022-11-14T09:24:25.452Z,15.80
2022-11-14T09:29:36.454Z,14.90
2022-11-14T09:34:48.504Z,14.90
2022-11-14T09:39:59.848Z,15.70
2022-11-14T09:45:16.074Z,14.70
2022-11-14T09:50:32.848Z,14.50
2022-11-14T09:55:43.618Z,15.30
2022-11-14T10:01:09.496Z,16.40
2022-11-14T10:06:23.737Z,16.80
2022-11-14T10:11:55.969Z,16.40
2022-11-14T10:17:19.036Z,14.90
2022-11-14T10:22:53.012Z,14.50
2022-11-14T10:28:29.493Z,16.00
2022-11-14T10:33:53.093Z,16.20
2022-11-14T10:39:22.058Z,16.60
2022-11-14T10:44:57.411Z,16.90
2022-11-14T10:50:39.388Z,16.50
2022-11-14T10:56:04.325Z,16.30
2022-11-14T11:01:40.605Z,16.20
2022-11-14T11:07:33.007Z,15.90
2022-11-14T11:12:50.484Z,15.80
2022-11-14T11:18:05.275Z,16.20
2022-11-14T11:23:26.827Z,16.70
2022-11-14T11:28:37.754Z,16.10
2022-11-14T11:33:48.620Z,15.20
2022-11-14T11:39:00.378Z,14.90
2022-11-14T11:44:16.318Z,15.40
2022-11-14T11:49:30.839Z,14.90
2022-11-14T11:54:58.705Z,14.30
2022-11-14T12:00:22.342Z,13.60
2022-11-14T12:06:28.765Z,13.50
2022-11-14T12:11:44.606Z,13.10
2022-11-14T12:17:14.067Z,12.80
2022-11-14T12:22:54.131Z,12.60
2022-11-14T12:28:25.091Z,12.60
2022-11-14T12:33:41.314Z,12.70
2022-11-14T12:38:54.819Z,12.80
2022-11-14T12:44:28.122Z,12.80
2022-11-14T12:49:48.120Z,12.70
2022-11-14T12:54:59.061Z,12.70
2022-11-14T13:00:10.339Z,12.70
2022-11-14T13:05:32.678Z,12.60
2022-11-14T13:10:43.509Z,12.70
2022-11-14T13:16:18.515Z,12.50
2022-11-14T13:21:46.585Z,12.50
2022-11-14T13:28:00.061Z,12.50
2022-11-14T13:33:02.056Z,12.50
2022-11-14T13:38:18.868Z,12.50
2022-11-14T13:43:43.951Z,12.40
2022-11-14T13:49:03.402Z,12.40
2022-11-14T13:54:17.917Z,12.30
2022-11-14T14:00:43.130Z,12.30
2022-11-14T14:06:30.160Z,12.30
2022-11-14T14:12:06.005Z,12.20
2022-11-14T14:17:49.001Z,12.20
2022-11-14T14:23:21.395Z,12.00
2022-11-14T14:35:40.645Z,11.80
2022-11-14T14:40:55.532Z,11.70
2022-11-14T14:46:06.437Z,11.60
2022-11-14T14:51:30.716Z,11.60
2022-11-14T14:56:55.234Z,11.50
2022-11-14T15:02:02.990Z,11.40
2022-11-14T15:07:23.059Z,11.30
2022-11-14T15:12:35.183Z,11.10
2022-11-14T15:17:48.662Z,11.10
2022-11-14T15:23:05.270Z,11.00
2022-11-14T15:28:20.311Z,10.90
2022-11-14T15:33:34.064Z,10.90
2022-11-14T15:39:23.660Z,10.80
2022-11-14T15:44:35.143Z,10.70
2022-11-14T15:50:12.267Z,10.70
2022-11-14T15:55:24.469Z,10.50
2022-11-14T16:00:35.582Z,10.40
2022-11-14T16:05:47.616Z,10.30
2022-11-14T16:11:54.888Z,10.40
2022-11-14T16:18:02.081Z,10.30
2022-11-14T16:24:09.050Z,10.20
2022-11-14T16:30:16.016Z,10.10
2022-11-14T16:36:25.382Z,10.10
2022-11-14T16:42:34.063Z,10.00
2022-11-14T16:48:42.152Z,10.00
2022-11-14T16:54:49.361Z,10.00
2022-11-14T17:00:58.827Z,9.90
2022-11-14T17:07:06.208Z,9.80
2022-11-14T17:13:14.651Z,9.80
2022-11-14T17:19:21.593Z,9.90
2022-11-14T17:25:28.773Z,9.90
2022-11-14T17:31:38.351Z,9.80
2022-11-14T17:37:48.438Z,9.90
2022-11-14T17:43:56.744Z,9.80
2022-11-14T17:50:04.179Z,9.80
2022-11-14T17:56:11.169Z,9.80
2022-11-14T18:02:20.803Z,9.80
2022-11-14T18:08:01.126Z,9.70
2022-11-14T18:13:11.813Z,9.70
2022-11-14T18:18:22.909Z,9.60
2022-11-14T18:23:35.462Z,9.70
2022-11-14T18:28:47.359Z,9.60
2022-11-14T18:33:58.761Z,9.50
2022-11-14T18:39:11.624Z,9.40
2022-11-14T18:44:24.351Z,9.40
2022-11-14T18:49:35.024Z,9.40
2022-11-14T18:54:46.972Z,9.40
2022-11-14T18:59:57.840Z,9.30
2022-11-14T19:05:09.084Z,9.30
2022-11-14T19:10:22.318Z,9.20
2022-11-14T19:15:33.087Z,9.10
2022-11-14T19:20:44.035Z,9.10
2022-11-14T19:26:02.438Z,9.10
2022-11-14T19:31:15.585Z,9.10
2022-11-14T19:36:57.620Z,9.00
2022-11-14T19:41:56.927Z,9.00
2022-11-14T19:47:10.811Z,8.80
2022-11-14T19:52:23.979Z,8.90
2022-11-14T19:57:34.834Z,9.00
2022-11-14T20:02:47.453Z,8.80
2022-11-14T20:08:01.043Z,8.70
2022-11-14T20:13:14.985Z,8.60
2022-11-14T20:18:26.601Z,8.60
2022-11-14T20:23:37.669Z,8.50
2022-11-14T20:28:54.176Z,8.50
2022-11-14T20:34:06.354Z,8.60
2022-11-14T20:39:16.841Z,8.60
2022-11-14T20:44:27.637Z,8.80
2022-11-14T20:49:39.055Z,8.80
2022-11-14T20:54:51.507Z,9.00
2022-11-14T21:00:02.244Z,9.10
2022-11-14T21:05:13.261Z,9.10
2022-11-14T21:10:42.268Z,9.00
2022-11-14T21:15:56.629Z,9.00
2022-11-14T21:21:11.091Z,8.80
2022-11-14T21:26:40.523Z,8.50
2022-11-14T21:31:51.355Z,8.70
2022-11-14T21:37:02.335Z,8.70
2022-11-14T21:42:18.203Z,8.40
2022-11-14T21:47:29.681Z,8.10
2022-11-14T21:52:40.215Z,7.80
2022-11-14T21:57:54.833Z,7.60
2022-11-14T22:03:24.368Z,7.50
2022-11-14T22:08:35.286Z,7.30
2022-11-14T22:13:48.748Z,7.30
2022-11-14T22:19:04.915Z,7.20
2022-11-14T22:24:16.048Z,7.20
2022-11-14T22:29:26.873Z,7.10
2022-11-14T22:34:37.704Z,7.10
2022-11-14T22:39:48.690Z,7.20
2022-11-14T22:44:59.790Z,7.10
2022-11-14T22:50:10.819Z,7.40
2022-11-14T22:55:21.837Z,7.70
2022-11-14T23:00:32.750Z,7.40
2022-11-14T23:05:39.887Z,7.20
2022-11-14T23:10:50.548Z,7.10
2022-11-14T23:16:01.582Z,7.20
2022-11-14T23:21:15.394Z,7.10
2022-11-14T23:26:27.548Z,7.10
2022-11-14T23:31:38.373Z,7.10
2022-11-14T23:36:50.532Z,6.90
2022-11-14T23:42:01.295Z,6.90
2022-11-14T23:47:12.616Z,7.00
2022-11-14T23:52:25.011Z,7.00
2022-11-14T23:57:38.504Z,6.90
